Sneads, FL (32460)

11:23 AM CDT on July 25, 2014 (GMT -0500)
Cypress (KFLMARIA3) Elev 138 ft | 30.67 °N, 85.07 °W | Change Station

Current weather conditions updated 0 second ago

Partly Cloudy
Partly Cloudy
87.4 °F
Feels Like 101 °F
N
4.9
Wind Variable Wind from SSW
Gusts 7.0 mph

Today is forecast to be nearly the same temperature as yesterday. Showers and thunderstorms.

Today
High -- | Low -- °F
--% Chance of Precip.
Yesterday
High -- | Low -- °F
Precip. -- in
5:53 AM 7:39 PM
Waning Crescent, 1% visible
Pressure 30.04 in
Visibility 10.0 miles
Clouds Clear
Heat Index 101 °F
Dew Point 78 °F
Humidity 75%
Rainfall 0.00 in
Snow Depth Not available.
UV 11 out of 12
Pollen 3.40 out of 12
Air Quality Not available.
Flu Activity Not available.
METAR KMAI 251553Z AUTO 21009KT 10SM CLR 31/23 A3004 RMK AO2 SLP170 T03060233

More Conditions Fewer Conditions

Pressure 30.04 in
Visibility 10.0 miles
Clouds Clear
Heat Index 101 °F
Dew Point 78 °F
Humidity 75%
Rainfall 0.00 in
Snow Depth Not available.
UV 11 out of 12
Pollen 3.40 out of 12
Air Quality Not available.
Flu Activity Not available.
METAR KMAI 251553Z AUTO 21009KT 10SM CLR 31/23 A3004 RMK AO2 SLP170 T03060233

More Conditions Fewer Conditions

10-Day Weather Forecast

Almanac

Astronomy

Jul. 25, 2014 Rise Set
Actual Time 5:53 AM CDT 7:39 PM CDT
Civil Twilight 5:26 AM CDT 8:05 PM CDT
Nautical Twilight 4:54 AM CDT 8:37 PM CDT
Astronomical Twilight 4:20 AM CDT 9:11 PM CDT
Moon 4:49 AM CDT 6:39 PM CDT
Length of Visible Light 14h 39m
Length of Day
13h 45m
Tomorrow will be 1m 13s shorter.
Waning Crescent, 1% of the Moon is Illuminated
Today
Waning Crescent
Jul 26
New
Aug 3
First Quarter
Aug 10
Full
Aug 17
Last Quarter

Today's Extremes

State Highs State Lows

Community

WunderPhotos

Upload Photos

1,737,362 photos uploaded!

Nearby

Snow Depth

Station Depth Elevation
No new snow has been reported.

Earthquake Activity

City Distance Mag. Time & Date
No recent earthquake activity has been reported nearby.
Minimum magnitude displayed is 2.5.

Coastal Water Temperatures

Place Temperature
No Stations Reporting

Nearby Weather Stations

Station Location Temp. Heat Index Dew Point Humidity Wind Precip. Elev Updated Type
Cypress, Marianna, FL 87.4 °F 101 °F 78 °F 75% SSW  at  4.9 mph 0.00 in / hr 138 ft 11:23 AM CDT Rapid Fire

Show More Stations Show Fewer Stations